createdAt,value
2023-03-06T00:00:57.790Z,8.20
2023-03-06T00:03:28.106Z,7.90
2023-03-06T00:05:58.755Z,8.30
2023-03-06T00:08:27.352Z,8.40
2023-03-06T00:10:59.185Z,8.90
2023-03-06T00:13:30.241Z,8.40
2023-03-06T00:16:00.482Z,10.70
2023-03-06T00:18:32.893Z,9.90
2023-03-06T00:21:10.136Z,10.90
2023-03-06T00:23:37.316Z,10.50
2023-03-06T00:26:08.240Z,9.60
2023-03-06T00:28:38.739Z,8.80
2023-03-06T00:31:15.911Z,7.60
2023-03-06T00:33:45.502Z,7.70
2023-03-06T00:36:12.917Z,7.60
2023-03-06T00:38:41.424Z,7.60
2023-03-06T00:41:12.374Z,8.10
2023-03-06T00:43:40.611Z,7.70
2023-03-06T00:46:08.485Z,7.60
2023-03-06T00:48:35.780Z,7.00
2023-03-06T00:51:12.812Z,7.70
2023-03-06T00:53:41.885Z,8.50
2023-03-06T00:56:09.223Z,8.50
2023-03-06T00:58:38.548Z,9.30
2023-03-06T01:01:09.147Z,8.40
2023-03-06T01:03:37.837Z,8.60
2023-03-06T01:06:07.043Z,7.10
2023-03-06T01:08:37.134Z,6.70
2023-03-06T01:11:05.532Z,7.20
2023-03-06T01:13:32.808Z,7.80
2023-03-06T01:16:18.766Z,7.70
2023-03-06T01:18:48.447Z,7.50
2023-03-06T01:21:16.385Z,7.60
2023-03-06T01:23:47.480Z,7.50
2023-03-06T01:26:15.532Z,7.90
2023-03-06T01:28:47.478Z,8.00
2023-03-06T01:31:20.293Z,9.00
2023-03-06T01:33:47.636Z,9.10
2023-03-06T01:36:23.611Z,9.00
2023-03-06T01:38:51.896Z,9.30
2023-03-06T01:41:21.239Z,8.00
2023-03-06T01:43:54.499Z,7.10
2023-03-06T01:46:53.995Z,8.20
2023-03-06T01:49:26.742Z,7.70
2023-03-06T01:52:09.615Z,7.80
2023-03-06T01:54:44.967Z,7.90
2023-03-06T01:57:22.180Z,7.80
2023-03-06T01:59:53.193Z,9.00
2023-03-06T02:02:23.962Z,8.90
2023-03-06T02:04:53.794Z,8.70
2023-03-06T02:07:21.382Z,8.40
2023-03-06T02:09:54.658Z,9.30
2023-03-06T02:12:34.786Z,8.90
2023-03-06T02:15:02.190Z,6.80
2023-03-06T02:17:35.493Z,6.60
2023-03-06T02:20:17.390Z,7.50
2023-03-06T02:22:52.986Z,7.90
2023-03-06T02:25:23.357Z,8.00
2023-03-06T02:27:56.603Z,8.10
2023-03-06T02:30:25.968Z,8.40
2023-03-06T02:32:53.808Z,8.20
2023-03-06T02:35:30.571Z,8.20
2023-03-06T02:37:59.519Z,9.30
2023-03-06T02:40:31.246Z,9.70
2023-03-06T02:42:58.885Z,9.00
2023-03-06T02:45:37.174Z,9.70
2023-03-06T02:48:15.748Z,9.10
2023-03-06T02:50:46.765Z,7.30
2023-03-06T02:53:19.009Z,7.10
2023-03-06T02:55:49.237Z,7.80
2023-03-06T02:58:21.290Z,7.90
2023-03-06T03:00:54.642Z,8.70
2023-03-06T03:03:22.465Z,9.70
2023-03-06T03:05:52.183Z,9.40
2023-03-06T03:08:25.795Z,9.10
2023-03-06T03:10:56.588Z,9.40
2023-03-06T03:13:26.651Z,9.50
2023-03-06T03:16:05.510Z,9.60
2023-03-06T03:18:34.016Z,9.80
2023-03-06T03:21:05.915Z,9.10
2023-03-06T03:23:33.395Z,10.00
2023-03-06T03:26:26.925Z,8.50
2023-03-06T03:28:59.596Z,7.40
2023-03-06T03:31:27.891Z,8.00
2023-03-06T03:33:55.582Z,8.80
2023-03-06T03:36:27.603Z,8.10
2023-03-06T03:38:55.476Z,8.70
2023-03-06T03:41:23.964Z,8.70
2023-03-06T03:43:51.676Z,9.30
2023-03-06T03:46:21.532Z,9.20
2023-03-06T03:49:09.761Z,9.80
2023-03-06T03:51:43.805Z,9.80
2023-03-06T03:54:12.088Z,9.90
2023-03-06T03:56:45.129Z,9.50
2023-03-06T04:02:14.994Z,9.90
2023-03-06T04:05:00.254Z,9.50
2023-03-06T04:08:33.220Z,8.10
2023-03-06T04:12:32.396Z,8.50
2023-03-06T04:15:48.668Z,9.40
2023-03-06T04:18:24.849Z,9.80
2023-03-06T04:24:03.429Z,10.60
2023-03-06T04:26:33.928Z,10.30
2023-03-06T04:29:01.741Z,11.00
2023-03-06T04:31:33.805Z,10.80
2023-03-06T04:34:09.899Z,11.10
2023-03-06T04:37:02.750Z,10.50
2023-03-06T04:39:59.720Z,11.20
2023-03-06T04:42:30.414Z,9.10
2023-03-06T04:45:14.225Z,7.90
2023-03-06T04:48:28.656Z,9.10
2023-03-06T04:51:07.112Z,10.30
2023-03-06T04:53:50.370Z,10.50
2023-03-06T04:56:34.707Z,10.20
2023-03-06T04:59:24.005Z,10.70
2023-03-06T05:01:59.238Z,10.20
2023-03-06T05:04:26.379Z,10.50
2023-03-06T05:06:54.000Z,10.80
2023-03-06T05:09:39.167Z,10.50
2023-03-06T05:12:07.840Z,9.30
2023-03-06T05:14:35.628Z,9.70
2023-03-06T05:17:06.648Z,9.70
2023-03-06T05:19:34.215Z,10.80
2023-03-06T05:22:11.582Z,13.10
2023-03-06T05:24:42.040Z,11.50
2023-03-06T05:27:09.354Z,12.60
2023-03-06T05:29:36.694Z,14.60
2023-03-06T05:32:16.251Z,19.60
2023-03-06T05:34:45.903Z,18.30
2023-03-06T05:37:13.161Z,15.80
2023-03-06T05:39:40.633Z,13.60
2023-03-06T05:42:08.500Z,13.00
2023-03-06T05:44:36.900Z,14.70
2023-03-06T05:47:10.100Z,16.20
2023-03-06T05:49:37.550Z,17.30
2023-03-06T05:52:07.242Z,19.80
2023-03-06T05:54:35.473Z,23.60
2023-03-06T05:57:04.407Z,21.50
2023-03-06T05:59:33.246Z,22.80
2023-03-06T06:02:06.857Z,24.20
2023-03-06T06:04:35.268Z,20.30
2023-03-06T06:07:03.533Z,18.40
2023-03-06T06:09:39.361Z,15.80
2023-03-06T06:12:06.832Z,14.00
2023-03-06T06:14:42.518Z,15.50
2023-03-06T06:17:12.505Z,13.70
2023-03-06T06:19:45.212Z,13.90
2023-03-06T06:22:12.471Z,14.40
2023-03-06T06:24:52.047Z,15.60
2023-03-06T06:27:22.381Z,15.60
2023-03-06T06:30:00.332Z,16.50
2023-03-06T06:32:27.567Z,15.40
2023-03-06T06:34:55.257Z,12.90
2023-03-06T06:37:22.513Z,15.90
2023-03-06T06:39:56.704Z,14.10
2023-03-06T06:42:40.307Z,15.70
2023-03-06T06:45:15.790Z,15.00
2023-03-06T06:47:46.438Z,14.50
2023-03-06T06:50:25.351Z,16.20
2023-03-06T06:52:58.953Z,16.00
2023-03-06T06:55:35.724Z,17.80
2023-03-06T06:58:05.616Z,17.70
2023-03-06T07:00:35.429Z,13.90
2023-03-06T07:03:10.504Z,14.90
2023-03-06T07:05:40.064Z,14.70
2023-03-06T07:08:16.535Z,12.20
2023-03-06T07:10:44.048Z,15.90
2023-03-06T07:13:28.034Z,14.30
2023-03-06T07:15:58.533Z,17.40
2023-03-06T07:18:25.767Z,18.20
2023-03-06T07:20:56.072Z,19.90
2023-03-06T07:23:23.530Z,21.70
2023-03-06T07:25:57.176Z,13.50
2023-03-06T07:28:28.186Z,14.60
2023-03-06T07:30:55.670Z,19.50
2023-03-06T07:33:23.171Z,16.50
2023-03-06T07:35:53.059Z,20.90
2023-03-06T07:38:23.029Z,22.10
2023-03-06T07:40:52.902Z,23.10
2023-03-06T07:43:20.804Z,26.30
2023-03-06T07:45:58.274Z,24.70
2023-03-06T07:48:26.388Z,26.50
2023-03-06T07:51:05.829Z,24.80
2023-03-06T07:53:37.440Z,24.90
2023-03-06T07:56:12.357Z,22.70
2023-03-06T07:58:48.440Z,22.80
2023-03-06T08:01:20.854Z,17.50
2023-03-06T08:03:50.773Z,23.10
2023-03-06T08:06:22.712Z,15.30
2023-03-06T08:08:55.329Z,15.40
2023-03-06T08:11:33.304Z,18.80
2023-03-06T08:14:04.980Z,18.20
2023-03-06T08:16:37.613Z,19.30
2023-03-06T08:19:05.142Z,17.90
2023-03-06T08:21:32.137Z,12.90
2023-03-06T08:24:06.276Z,13.30
2023-03-06T08:26:40.700Z,15.90
2023-03-06T08:29:22.436Z,15.30
2023-03-06T08:31:55.426Z,22.40
2023-03-06T08:34:26.255Z,40.70
2023-03-06T08:37:14.533Z,35.00
2023-03-06T08:39:41.874Z,20.10
2023-03-06T08:42:49.841Z,17.70
2023-03-06T08:45:17.108Z,21.60
2023-03-06T08:47:44.656Z,22.80
2023-03-06T08:50:22.265Z,32.90
2023-03-06T08:52:50.139Z,28.60
2023-03-06T08:55:24.814Z,27.00
2023-03-06T08:57:55.316Z,27.80
2023-03-06T09:00:27.088Z,26.40
2023-03-06T09:02:54.363Z,15.00
2023-03-06T09:05:30.794Z,14.50
2023-03-06T09:07:58.059Z,28.50
2023-03-06T09:10:28.715Z,22.20
2023-03-06T09:13:08.894Z,60.70
2023-03-06T09:15:56.711Z,204.50
2023-03-06T09:18:41.453Z,32.90
2023-03-06T09:21:09.073Z,23.80
2023-03-06T09:23:43.020Z,48.60
2023-03-06T09:26:13.620Z,41.20
2023-03-06T09:31:18.556Z,42.30
2023-03-06T09:33:49.990Z,22.60
2023-03-06T09:36:21.314Z,27.10
2023-03-06T09:38:49.925Z,33.10
2023-03-06T09:41:28.253Z,24.10
2023-03-06T09:44:08.827Z,58.80
2023-03-06T09:46:58.035Z,30.70
2023-03-06T09:49:29.356Z,20.50
2023-03-06T09:52:18.363Z,21.20
2023-03-06T09:55:12.919Z,19.10
2023-03-06T09:58:07.501Z,19.60
2023-03-06T10:00:48.426Z,19.10
2023-03-06T10:03:32.484Z,18.90
2023-03-06T10:06:09.621Z,22.60
2023-03-06T10:08:54.772Z,20.50
2023-03-06T10:11:49.799Z,20.00
2023-03-06T10:14:41.086Z,15.90
2023-03-06T10:17:30.376Z,15.60
2023-03-06T10:20:00.593Z,15.20
2023-03-06T10:23:00.642Z,18.40
2023-03-06T10:26:02.070Z,19.00
2023-03-06T10:28:45.689Z,17.70
2023-03-06T10:31:31.460Z,14.80
2023-03-06T10:34:12.188Z,13.80
2023-03-06T10:36:59.155Z,14.10
2023-03-06T10:39:31.524Z,13.30
2023-03-06T10:41:58.807Z,12.70
2023-03-06T10:44:25.991Z,14.50
2023-03-06T10:46:56.462Z,13.60
2023-03-06T10:49:37.118Z,15.60
2023-03-06T10:52:05.730Z,15.50
2023-03-06T10:54:39.065Z,12.30
2023-03-06T10:57:31.098Z,12.30
2023-03-06T11:00:01.221Z,10.90
2023-03-06T11:02:33.985Z,10.70
2023-03-06T11:05:26.152Z,11.80
2023-03-06T11:08:21.108Z,10.50
2023-03-06T11:11:08.452Z,10.20
2023-03-06T11:13:42.346Z,10.20
2023-03-06T11:16:28.562Z,8.20
2023-03-06T11:19:10.429Z,10.40
2023-03-06T11:22:04.512Z,8.40
2023-03-06T11:24:42.604Z,8.20
2023-03-06T11:27:35.863Z,7.80
2023-03-06T11:30:48.959Z,7.90
2023-03-06T11:33:50.297Z,8.50
2023-03-06T11:36:50.037Z,6.80
2023-03-06T11:39:54.783Z,7.90
2023-03-06T11:42:29.795Z,8.80
2023-03-06T11:45:27.171Z,8.60
2023-03-06T11:48:15.560Z,8.00
2023-03-06T11:50:54.844Z,8.00
2023-03-06T11:53:40.739Z,10.00
2023-03-06T11:56:19.690Z,8.30
2023-03-06T11:58:52.231Z,9.50
2023-03-06T12:01:54.059Z,9.40
2023-03-06T12:04:45.021Z,9.00
2023-03-06T12:07:32.473Z,9.20
2023-03-06T12:10:23.419Z,8.70
2023-03-06T12:13:20.242Z,9.60
2023-03-06T12:16:23.155Z,9.10
2023-03-06T12:19:01.464Z,9.20
2023-03-06T12:21:32.212Z,8.50
2023-03-06T12:24:37.032Z,10.00
2023-03-06T12:27:31.724Z,9.60
2023-03-06T12:30:11.248Z,9.30
2023-03-06T12:33:03.963Z,8.40
2023-03-06T12:36:02.782Z,9.60
2023-03-06T12:38:39.926Z,8.10
2023-03-06T12:41:08.806Z,7.70
2023-03-06T12:43:45.784Z,8.00
2023-03-06T12:46:23.223Z,7.80
2023-03-06T12:49:31.484Z,8.50
2023-03-06T12:52:01.761Z,8.00
2023-03-06T12:54:30.327Z,8.70
2023-03-06T12:56:57.574Z,9.20
2023-03-06T12:59:44.700Z,8.00
2023-03-06T13:02:17.786Z,8.30
2023-03-06T13:04:56.477Z,8.40
2023-03-06T13:07:47.872Z,7.90
2023-03-06T13:10:38.650Z,8.20
2023-03-06T13:13:25.755Z,9.10
2023-03-06T13:16:18.582Z,8.90
2023-03-06T13:19:02.529Z,9.10
2023-03-06T13:21:41.824Z,8.70
2023-03-06T13:24:37.764Z,9.10
2023-03-06T13:27:13.574Z,8.80
2023-03-06T13:29:48.737Z,9.40
2023-03-06T13:32:19.700Z,7.60
2023-03-06T13:34:51.737Z,8.00
2023-03-06T13:37:20.433Z,7.80
2023-03-06T13:40:10.390Z,8.40
2023-03-06T13:43:00.059Z,11.90
2023-03-06T13:45:31.694Z,8.70
2023-03-06T13:48:21.403Z,8.10
2023-03-06T13:50:49.582Z,8.90
2023-03-06T13:53:41.246Z,9.70
2023-03-06T13:56:26.414Z,8.70
2023-03-06T13:59:14.230Z,7.60
2023-03-06T14:01:52.956Z,8.60
2023-03-06T14:04:57.835Z,9.60
2023-03-06T14:07:33.515Z,8.80
2023-03-06T14:10:20.701Z,8.40
2023-03-06T14:12:50.797Z,8.90
2023-03-06T14:15:25.364Z,7.90
2023-03-06T14:18:28.414Z,9.50
2023-03-06T14:20:59.614Z,9.00
2023-03-06T14:23:30.250Z,11.20
2023-03-06T14:28:37.025Z,10.40
2023-03-06T14:31:19.473Z,15.30
2023-03-06T14:33:54.452Z,11.30
2023-03-06T14:36:22.969Z,10.90
2023-03-06T14:38:54.442Z,10.10
2023-03-06T14:41:27.086Z,10.80
2023-03-06T14:44:18.021Z,10.50
2023-03-06T14:46:52.045Z,12.00
2023-03-06T14:49:20.345Z,15.10
2023-03-06T14:52:14.992Z,12.90
2023-03-06T14:54:52.235Z,12.20
2023-03-06T14:57:22.436Z,12.50
2023-03-06T15:00:02.181Z,15.50
2023-03-06T15:02:38.937Z,16.80
2023-03-06T15:05:28.142Z,15.80
2023-03-06T15:07:58.133Z,20.50
2023-03-06T15:10:27.376Z,18.60
2023-03-06T15:13:23.532Z,26.40
2023-03-06T15:16:22.565Z,19.80
2023-03-06T15:19:01.329Z,21.30
2023-03-06T15:21:32.336Z,29.40
2023-03-06T15:23:59.731Z,24.20
2023-03-06T15:26:37.138Z,21.20
2023-03-06T15:29:13.855Z,22.80
2023-03-06T15:31:44.700Z,26.90
2023-03-06T15:34:32.476Z,27.20
2023-03-06T15:36:59.899Z,25.80
2023-03-06T15:39:34.924Z,30.30
2023-03-06T15:42:08.179Z,19.90
2023-03-06T15:44:38.507Z,32.10
2023-03-06T15:47:09.506Z,31.90
2023-03-06T15:49:39.538Z,31.70
2023-03-06T15:52:07.540Z,34.30
2023-03-06T15:54:35.618Z,21.50
2023-03-06T15:57:06.449Z,22.90
2023-03-06T15:59:41.472Z,28.70
2023-03-06T16:02:28.435Z,28.30
2023-03-06T16:04:55.336Z,29.90
2023-03-06T16:07:22.620Z,64.70
2023-03-06T16:09:50.093Z,35.20
2023-03-06T16:12:19.059Z,37.80
2023-03-06T16:14:50.186Z,26.80
2023-03-06T16:17:23.634Z,23.80
2023-03-06T16:19:51.556Z,24.30
2023-03-06T16:22:18.980Z,22.60
2023-03-06T16:24:46.105Z,22.10
2023-03-06T16:27:22.857Z,20.20
2023-03-06T16:29:54.596Z,21.10
2023-03-06T16:32:22.052Z,18.10
2023-03-06T16:34:49.119Z,23.50
2023-03-06T16:37:16.601Z,43.70
2023-03-06T16:39:51.218Z,55.30
2023-03-06T16:42:19.393Z,115.50
2023-03-06T16:44:46.918Z,100.60
2023-03-06T16:47:19.745Z,74.40
2023-03-06T16:49:52.073Z,115.90
2023-03-06T16:52:19.439Z,121.10
2023-03-06T16:54:56.237Z,128.00
2023-03-06T16:57:28.416Z,99.30
2023-03-06T17:00:03.984Z,83.80
2023-03-06T17:02:34.061Z,81.10
2023-03-06T17:05:07.258Z,69.90
2023-03-06T17:07:36.038Z,66.70
2023-03-06T17:10:05.104Z,47.10
2023-03-06T17:12:32.520Z,38.40
2023-03-06T17:14:59.508Z,45.60
2023-03-06T17:17:27.093Z,44.00
2023-03-06T17:19:56.642Z,41.80
2023-03-06T17:22:23.863Z,41.50
2023-03-06T17:24:52.230Z,34.60
2023-03-06T17:27:22.368Z,28.90
2023-03-06T17:29:57.938Z,26.50
2023-03-06T17:32:27.349Z,23.30
2023-03-06T17:34:57.542Z,17.80
2023-03-06T17:37:27.714Z,16.80
2023-03-06T17:39:55.187Z,14.50
2023-03-06T17:42:22.433Z,15.00
2023-03-06T17:44:51.075Z,13.90
2023-03-06T17:47:20.974Z,15.30
2023-03-06T17:49:48.110Z,14.60
2023-03-06T17:52:15.698Z,15.00
2023-03-06T17:54:43.109Z,14.20
2023-03-06T17:57:12.597Z,15.90
2023-03-06T17:59:40.235Z,18.20
2023-03-06T18:02:11.410Z,16.00
2023-03-06T18:04:42.449Z,17.30
2023-03-06T18:07:19.871Z,16.40
2023-03-06T18:09:47.328Z,19.40
2023-03-06T18:12:16.907Z,20.80
2023-03-06T18:14:44.541Z,24.20
2023-03-06T18:17:12.135Z,20.30
2023-03-06T18:19:41.297Z,19.80
2023-03-06T18:22:11.682Z,16.10
2023-03-06T18:24:38.947Z,15.70
2023-03-06T18:27:06.579Z,15.40
2023-03-06T18:29:34.644Z,16.10
2023-03-06T18:32:02.471Z,14.90
2023-03-06T18:34:37.692Z,14.70
2023-03-06T18:37:04.987Z,14.00
2023-03-06T18:39:32.750Z,14.20
2023-03-06T18:42:07.006Z,14.70
2023-03-06T18:44:41.920Z,17.40
2023-03-06T18:47:17.138Z,13.50
2023-03-06T18:49:45.988Z,15.30
2023-03-06T18:52:20.383Z,13.10
2023-03-06T18:54:51.637Z,11.40
2023-03-06T18:57:28.723Z,7.70
2023-03-06T19:00:37.321Z,8.20
2023-03-06T19:03:19.452Z,7.60
2023-03-06T19:05:50.444Z,7.20
2023-03-06T19:08:17.873Z,8.70
2023-03-06T19:10:50.607Z,8.30
2023-03-06T19:13:22.194Z,8.90
2023-03-06T19:15:49.365Z,8.40
2023-03-06T19:18:22.313Z,9.40
2023-03-06T19:20:49.617Z,9.60
2023-03-06T19:23:16.916Z,9.80
2023-03-06T19:25:43.889Z,10.90
2023-03-06T19:28:11.639Z,12.20
2023-03-06T19:30:41.920Z,12.10
2023-03-06T19:33:15.664Z,16.90
2023-03-06T19:35:42.974Z,13.10
2023-03-06T19:38:10.503Z,12.30
2023-03-06T19:40:38.118Z,13.60
2023-03-06T19:43:07.770Z,17.80
2023-03-06T19:45:36.724Z,12.20
2023-03-06T19:48:05.984Z,14.60
2023-03-06T19:50:37.069Z,13.20
2023-03-06T19:53:04.595Z,15.60
2023-03-06T19:55:31.842Z,18.90
2023-03-06T19:58:00.044Z,17.80
2023-03-06T20:00:27.630Z,20.20
2023-03-06T20:02:55.661Z,23.20
2023-03-06T20:05:23.195Z,37.10
2023-03-06T20:07:50.401Z,42.00
2023-03-06T20:10:18.130Z,23.00
2023-03-06T20:12:46.780Z,28.40
2023-03-06T20:15:18.990Z,14.80
2023-03-06T20:17:58.944Z,15.30
2023-03-06T20:20:28.057Z,14.50
2023-03-06T20:23:06.195Z,12.60
2023-03-06T20:25:36.502Z,15.10
2023-03-06T20:28:04.770Z,17.60
2023-03-06T20:30:43.244Z,23.80
2023-03-06T20:33:10.985Z,25.80
2023-03-06T20:35:42.747Z,30.60
2023-03-06T20:38:13.670Z,33.10
2023-03-06T20:40:46.587Z,35.20
2023-03-06T20:43:17.495Z,38.50
2023-03-06T20:45:58.601Z,34.90
2023-03-06T20:48:26.014Z,27.10
2023-03-06T20:51:31.551Z,35.10
2023-03-06T20:54:04.304Z,42.90
2023-03-06T20:56:40.107Z,35.80
2023-03-06T20:59:11.927Z,45.90
2023-03-06T21:01:43.108Z,46.70
2023-03-06T21:04:13.775Z,42.70
2023-03-06T21:09:15.885Z,48.80
2023-03-06T21:11:44.882Z,55.40
2023-03-06T21:16:50.665Z,38.90
2023-03-06T21:19:27.045Z,20.50
2023-03-06T21:24:33.795Z,8.60
2023-03-06T21:27:04.342Z,9.70
2023-03-06T21:29:31.607Z,11.50
2023-03-06T21:32:03.534Z,11.50
2023-03-06T21:34:34.941Z,10.10
2023-03-06T21:37:05.053Z,19.90
2023-03-06T21:39:47.526Z,11.00
2023-03-06T21:42:17.974Z,9.80
2023-03-06T21:44:48.936Z,10.10
2023-03-06T21:47:21.751Z,10.10
2023-03-06T21:49:52.441Z,9.70
2023-03-06T21:52:26.556Z,10.00
2023-03-06T21:55:04.964Z,9.50
2023-03-06T21:57:41.123Z,9.50
2023-03-06T22:00:18.389Z,9.40
2023-03-06T22:02:48.855Z,10.20
2023-03-06T22:05:21.914Z,10.30
2023-03-06T22:07:54.950Z,10.50
2023-03-06T22:10:56.878Z,9.20
2023-03-06T22:14:45.028Z,10.00
2023-03-06T22:18:15.966Z,7.40
2023-03-06T22:24:32.375Z,8.40
2023-03-06T22:27:07.813Z,10.50
2023-03-06T22:29:41.208Z,12.20
2023-03-06T22:32:17.109Z,13.00
2023-03-06T22:34:48.030Z,12.20
2023-03-06T22:37:40.540Z,12.50
2023-03-06T22:40:15.825Z,9.80
2023-03-06T22:42:59.724Z,10.20
2023-03-06T22:45:34.604Z,9.70
2023-03-06T22:48:11.383Z,12.80
2023-03-06T22:50:38.892Z,15.30
2023-03-06T22:53:06.570Z,36.80
2023-03-06T22:55:37.592Z,21.70
2023-03-06T22:58:08.025Z,33.10
2023-03-06T23:00:35.487Z,28.90
2023-03-06T23:03:05.883Z,21.40
2023-03-06T23:05:44.316Z,19.80
2023-03-06T23:08:12.276Z,19.80
2023-03-06T23:10:39.746Z,20.10
2023-03-06T23:13:30.349Z,20.50
2023-03-06T23:16:22.675Z,23.80
2023-03-06T23:19:09.121Z,24.80
2023-03-06T23:22:05.518Z,17.60
2023-03-06T23:24:53.853Z,43.20
2023-03-06T23:27:24.084Z,10.40
2023-03-06T23:29:59.040Z,23.40
2023-03-06T23:32:27.272Z,16.70
2023-03-06T23:34:54.845Z,14.00
2023-03-06T23:37:31.112Z,10.90
2023-03-06T23:42:40.605Z,12.70
2023-03-06T23:45:09.041Z,32.70
2023-03-06T23:47:39.757Z,36.70
2023-03-06T23:50:07.982Z,19.10
2023-03-06T23:52:38.306Z,15.60
2023-03-06T23:55:09.191Z,10.60
2023-03-06T23:57:36.707Z,8.30
